Time;durP1;ratioP1;P1;durP2;ratioP2;P2;SDS_P1;SDS_P2;PMS_P1;PMS_P2;Temp;Humidity;BMP_temperature;BMP_pressure;BME280_temperature;BME280_humidity;BME280_pressure;Samples;Min_cycle;Max_cycle;Signal;HPM_P1;HPM_P2
2021/04/04 00:00:12;;;;;;;69.28;38.05;;;7.60;57.70;;;;;;5034325;28;20116;-73
2021/04/04 00:02:38;;;;;;;70.18;34.92;;;7.60;57.90;;;;;;5034557;28;20448;-72
2021/04/04 00:05:06;;;;;;;60.33;33.50;;;7.60;57.90;;;;;;5034137;28;20075;-73
2021/04/04 00:07:32;;;;;;;56.22;29.75;;;7.70;57.90;;;;;;5034568;28;20461;-73
2021/04/04 00:09:58;;;;;;;48.35;24.95;;;7.80;57.80;;;;;;5034019;28;21037;-73
2021/04/04 00:12:24;;;;;;;43.60;23.73;;;7.90;57.70;;;;;;5034256;28;20075;-73
2021/04/04 00:14:50;;;;;;;44.35;24.63;;;7.90;57.60;;;;;;5034448;28;20049;-73
2021/04/04 00:17:16;;;;;;;45.58;25.33;;;8.00;57.30;;;;;;5033654;28;20029;-73
2021/04/04 00:19:41;;;;;;;41.92;24.08;;;8.00;57.20;;;;;;5034691;28;20105;-73
2021/04/04 00:22:08;;;;;;;40.60;22.90;;;8.00;57.20;;;;;;5032641;28;20022;-73
2021/04/04 00:24:34;;;;;;;40.90;23.42;;;8.10;57.20;;;;;;5034153;28;20040;-73
2021/04/04 00:27:00;;;;;;;44.13;24.65;;;8.20;57.20;;;;;;5033572;28;20025;-73
2021/04/04 00:29:25;;;;;;;46.45;27.05;;;8.10;57.00;;;;;;5034579;28;20040;-73
2021/04/04 00:31:51;;;;;;;50.20;27.60;;;8.10;57.00;;;;;;5034079;28;20033;-73
2021/04/04 00:34:16;;;;;;;52.25;28.95;;;8.10;57.10;;;;;;5034385;28;20025;-73
2021/04/04 00:36:42;;;;;;;52.58;30.48;;;8.00;57.10;;;;;;5032644;28;20439;-73
2021/04/04 00:39:10;;;;;;;52.28;29.63;;;8.10;57.20;;;;;;5033631;28;20383;-73
2021/04/04 00:41:36;;;;;;;52.47;29.85;;;8.10;57.30;;;;;;5034289;28;20105;-83
2021/04/04 00:44:02;;;;;;;48.80;28.58;;;8.10;57.20;;;;;;5034479;28;20049;-83
2021/04/04 00:46:28;;;;;;;51.70;30.73;;;8.10;57.10;;;;;;5050799;28;20029;-80
2021/04/04 00:48:54;;;;;;;53.10;31.05;;;8.10;57.00;;;;;;5057444;28;20407;-79
2021/04/04 00:51:20;;;;;;;53.22;30.77;;;8.10;57.10;;;;;;5058485;28;20023;-82
2021/04/04 00:53:45;;;;;;;51.40;30.10;;;8.10;57.10;;;;;;5057531;28;20037;-83
2021/04/04 00:56:12;;;;;;;61.17;30.60;;;8.10;57.10;;;;;;5037886;28;20073;-84
2021/04/04 00:58:39;;;;;;;50.92;30.27;;;8.10;56.90;;;;;;5028900;28;20089;-82
2021/04/04 01:01:06;;;;;;;55.58;29.73;;;8.20;57.00;;;;;;5039853;28;20083;-84
2021/04/04 01:03:32;;;;;;;51.70;30.35;;;8.20;57.00;;;;;;5034186;28;20040;-84
2021/04/04 01:06:06;;;;;;;54.72;29.80;;;8.10;57.10;;;;;;5032635;28;20036;-84
2021/04/04 01:08:34;;;;;;;57.38;31.23;;;8.10;57.30;;;;;;5032304;28;20032;-85
2021/04/04 01:11:00;;;;;;;53.05;29.60;;;8.10;57.40;;;;;;5032178;28;20384;-84
2021/04/04 01:13:35;;;;;;;57.53;31.92;;;8.10;57.60;;;;;;5032295;28;20053;-84
2021/04/04 01:16:14;;;;;;;50.90;30.23;;;8.00;58.00;;;;;;5042421;28;20069;-84
2021/04/04 01:18:56;;;;;;;54.40;30.10;;;8.00;58.10;;;;;;5029047;28;20084;-83
2021/04/04 01:21:29;;;;;;;53.95;30.88;;;8.00;58.10;;;;;;5025399;28;20029;-84
2021/04/04 01:24:25;;;;;;;53.28;31.40;;;8.00;57.90;;;;;;5033528;28;20030;-84
2021/04/04 01:26:54;;;;;;;;;;;8.00;58.10;;;;;;5034127;28;20087;-84
2021/04/04 01:29:21;;;;;;;51.92;28.73;;;7.90;57.60;;;;;;5033370;28;19936;-84
2021/04/04 01:31:51;;;;;;;49.60;28.23;;;7.80;57.90;;;;;;5034589;28;20029;-84
2021/04/04 01:34:19;;;;;;;50.97;28.83;;;7.80;58.20;;;;;;5044945;28;20029;-84
2021/04/04 01:36:48;;;;;;;45.63;25.95;;;7.70;58.40;;;;;;5031883;28;20116;-84
2021/04/04 01:39:17;;;;;;;44.38;25.67;;;7.70;58.60;;;;;;5026934;28;20436;-84
2021/04/04 01:41:43;;;;;;;40.33;24.17;;;7.70;58.60;;;;;;5024451;28;20476;-84
2021/04/04 01:44:19;;;;;;;45.53;25.00;;;7.70;58.50;;;;;;5031410;28;20464;-84
2021/04/04 01:46:47;;;;;;;44.30;24.10;;;7.80;59.00;;;;;;5033453;28;20037;-84
2021/04/04 01:49:14;;;;;;;43.25;24.42;;;7.80;58.10;;;;;;5032836;28;20106;-84
2021/04/04 01:51:42;;;;;;;42.83;24.55;;;7.80;58.10;;;;;;5031685;28;20116;-84
2021/04/04 01:54:09;;;;;;;39.22;24.20;;;7.80;58.10;;;;;;5032846;28;20121;-84
2021/04/04 01:56:36;;;;;;;43.47;25.30;;;7.80;58.30;;;;;;5035951;28;20116;-84
2021/04/04 01:59:03;;;;;;;40.20;23.55;;;7.70;58.30;;;;;;5036892;28;20064;-84
2021/04/04 02:01:30;;;;;;;45.40;26.40;;;7.70;58.40;;;;;;5035568;28;20353;-85
2021/04/04 02:04:03;;;;;;;48.67;28.02;;;7.70;58.60;;;;;;5036685;28;20036;-84
2021/04/04 02:06:30;;;;;;;52.75;29.20;;;7.70;58.70;;;;;;5036691;28;20491;-84
2021/04/04 02:08:56;;;;;;;52.55;29.58;;;7.80;58.80;;;;;;5036212;28;20442;-83
2021/04/04 02:11:28;;;;;;;56.38;30.15;;;7.70;59.00;;;;;;5035156;28;20026;-85
2021/04/04 02:13:54;;;;;;;51.08;29.15;;;7.70;59.20;;;;;;5037160;28;20025;-85
2021/04/04 02:16:20;;;;;;;46.25;26.50;;;7.70;59.30;;;;;;5035599;28;20037;-85
2021/04/04 02:18:47;;;;;;;53.00;31.33;;;7.60;59.30;;;;;;5035259;28;20025;-84
2021/04/04 02:21:16;;;;;;;56.63;30.52;;;7.70;59.60;;;;;;5035258;28;20051;-84
2021/04/04 02:23:43;;;;;;;56.50;31.40;;;7.60;59.60;;;;;;5035652;28;20065;-84
2021/04/04 02:26:09;;;;;;;52.83;29.20;;;7.60;59.70;;;;;;5035837;28;20369;-84
2021/04/04 02:28:34;;;;;;;51.88;29.00;;;7.50;59.70;;;;;;5037284;28;20086;-84
2021/04/04 02:31:01;;;;;;;56.20;30.92;;;7.50;59.80;;;;;;5035073;28;20026;-84
2021/04/04 02:33:36;;;;;;;54.03;31.20;;;7.50;59.80;;;;;;5035628;28;20029;-84
2021/04/04 02:36:07;;;;;;;56.17;31.85;;;7.50;60.10;;;;;;5053698;28;20040;-81
2021/04/04 02:38:37;;;;;;;54.65;31.67;;;7.40;60.30;;;;;;5059831;28;20093;-83
2021/04/04 02:41:06;;;;;;;56.63;31.80;;;7.40;60.70;;;;;;5060705;28;20081;-84
2021/04/04 02:43:34;;;;;;;57.80;32.95;;;7.30;60.90;;;;;;5060204;28;20010;-84
2021/04/04 02:46:04;;;;;;;56.78;31.60;;;7.30;61.10;;;;;;5039470;28;20404;-82
2021/04/04 02:48:38;;;;;;;54.92;32.03;;;7.20;61.20;;;;;;5047545;28;20029;-84
2021/04/04 02:51:07;;;;;;;59.03;33.70;;;7.20;61.20;;;;;;5040665;28;20029;-84
2021/04/04 02:53:40;;;;;;;62.85;34.17;;;7.10;61.00;;;;;;5038124;28;20059;-84
2021/04/04 02:56:07;;;;;;;59.53;33.30;;;7.00;61.20;;;;;;5035970;28;20025;-84
2021/04/04 02:58:35;;;;;;;55.60;32.42;;;6.90;61.10;;;;;;5024475;28;20507;-84
2021/04/04 03:01:03;;;;;;;57.35;32.38;;;7.00;61.30;;;;;;5046638;28;20029;-83
2021/04/04 03:03:31;;;;;;;57.65;32.58;;;7.10;61.40;;;;;;5051257;28;20026;-84
2021/04/04 03:06:01;;;;;;;53.60;33.33;;;7.10;61.40;;;;;;5036289;28;20033;-84
2021/04/04 03:08:27;;;;;;;54.88;31.23;;;7.20;61.60;;;;;;5027783;28;20022;-84
2021/04/04 03:10:54;;;;;;;47.42;26.00;;;7.20;61.70;;;;;;5029398;28;20033;-83
2021/04/04 03:13:22;;;;;;;64.72;32.55;;;7.30;61.50;;;;;;5034335;28;20078;-84
2021/04/04 03:15:50;;;;;;;67.32;33.65;;;7.30;61.50;;;;;;5035464;28;20037;-85
2021/04/04 03:18:17;;;;;;;65.70;35.28;;;7.30;61.70;;;;;;5034391;28;20164;-80
2021/04/04 03:20:44;;;;;;;53.22;30.45;;;7.30;61.90;;;;;;5034676;28;20025;-83
2021/04/04 03:23:16;;;;;;;58.00;33.95;;;7.30;61.70;;;;;;5036603;28;20489;-84
2021/04/04 03:25:43;;;;;;;54.35;29.55;;;7.30;61.70;;;;;;5035878;28;20039;-84
2021/04/04 03:28:10;;;;;;;63.92;35.92;;;7.30;61.30;;;;;;5033684;28;20053;-83
2021/04/04 03:30:42;;;;;;;40.08;23.80;;;7.40;61.20;;;;;;5033801;28;20025;-84
2021/04/04 03:33:09;;;;;;;57.20;32.83;;;7.40;60.50;;;;;;5035387;28;20105;-84
2021/04/04 03:35:35;;;;;;;63.70;36.30;;;7.40;60.60;;;;;;5044244;28;20049;-83
2021/04/04 03:38:04;;;;;;;58.20;35.50;;;7.40;60.80;;;;;;5028465;28;20484;-85
2021/04/04 03:40:30;;;;;;;62.90;35.53;;;7.40;61.20;;;;;;5029337;28;20030;-84
2021/04/04 03:42:59;;;;;;;59.75;35.05;;;7.40;61.50;;;;;;5035101;28;20455;-84
2021/04/04 03:45:25;;;;;;;71.10;37.75;;;7.40;61.80;;;;;;5033955;28;20463;-84
2021/04/04 03:47:52;;;;;;;82.95;44.92;;;7.40;61.90;;;;;;5034633;28;20380;-84
2021/04/04 03:50:19;;;;;;;77.78;42.33;;;7.30;61.90;;;;;;5034770;28;20042;-84
2021/04/04 03:52:50;;;;;;;71.85;38.55;;;7.40;61.70;;;;;;5033489;28;20380;-85
2021/04/04 03:55:20;;;;;;;65.88;38.70;;;7.40;61.40;;;;;;5033400;28;20033;-83
2021/04/04 03:57:49;;;;;;;79.00;42.13;;;7.50;61.10;;;;;;5033062;28;20068;-84
2021/04/04 04:00:20;;;;;;;76.07;42.05;;;7.50;61.10;;;;;;5024141;28;20469;-85
2021/04/04 04:02:48;;;;;;;75.28;40.78;;;7.50;61.30;;;;;;5029947;28;20328;-84
2021/04/04 04:05:16;;;;;;;73.45;40.63;;;7.50;61.40;;;;;;5034503;28;20041;-84
2021/04/04 04:07:42;;;;;;;74.30;41.17;;;7.50;61.60;;;;;;5033505;28;20130;-84
2021/04/04 04:10:14;;;;;;;80.15;42.70;;;7.60;61.80;;;;;;5043621;28;20376;-85
2021/04/04 04:12:40;;;;;;;79.60;44.00;;;7.70;61.70;;;;;;5041167;28;20030;-84
2021/04/04 04:15:07;;;;;;;80.13;43.35;;;7.70;61.50;;;;;;5033382;28;20033;-84
2021/04/04 04:17:33;;;;;;;75.78;41.75;;;7.80;61.60;;;;;;5033003;28;20132;-85
2021/04/04 04:20:00;;;;;;;76.50;41.65;;;7.90;61.80;;;;;;5034400;28;20104;-85
2021/04/04 04:22:26;;;;;;;68.82;39.35;;;8.00;61.80;;;;;;5038288;28;20005;-83
2021/04/04 04:24:53;;;;;;;77.43;42.17;;;8.00;61.60;;;;;;5058201;28;20040;-85
2021/04/04 04:27:20;;;;;;;75.93;39.15;;;8.10;61.70;;;;;;5058394;28;20035;-84
2021/04/04 04:29:49;;;;;;;66.38;36.33;;;8.10;61.50;;;;;;5058681;28;20029;-83
2021/04/04 04:32:18;;;;;;;56.25;33.05;;;8.30;61.50;;;;;;5051266;28;20021;-84
2021/04/04 04:34:45;;;;;;;59.50;33.58;;;8.40;61.10;;;;;;5046447;28;20009;-84
2021/04/04 04:37:14;;;;;;;68.10;37.45;;;8.50;60.60;;;;;;5036682;28;20033;-84
2021/04/04 04:39:41;;;;;;;70.40;40.97;;;8.60;60.50;;;;;;5038323;28;20140;-84
2021/04/04 04:42:12;;;;;;;82.85;40.22;;;8.70;60.60;;;;;;5040550;28;20076;-84
2021/04/04 04:44:50;;;;;;;77.35;40.50;;;8.70;61.00;;;;;;5032857;28;20483;-85
2021/04/04 04:47:16;;;;;;;65.80;38.70;;;8.70;61.10;;;;;;5018474;28;20034;-84
2021/04/04 04:49:45;;;;;;;69.18;40.40;;;8.70;61.10;;;;;;5032994;28;20105;-84
2021/04/04 04:52:12;;;;;;;67.88;38.38;;;8.80;61.20;;;;;;5034265;28;20041;-84
2021/04/04 04:54:42;;;;;;;67.03;39.10;;;8.90;61.10;;;;;;5033801;28;20029;-85
2021/04/04 04:57:10;;;;;;;63.85;38.88;;;9.00;60.90;;;;;;5034389;28;20144;-84
2021/04/04 04:59:37;;;;;;;61.67;37.92;;;9.10;60.70;;;;;;5033746;28;20022;-84
2021/04/04 05:02:08;;;;;;;48.53;32.22;;;9.30;60.30;;;;;;5033735;28;20018;-84
2021/04/04 05:04:34;;;;;;;57.47;30.92;;;9.50;59.70;;;;;;5033754;28;20029;-83
2021/04/04 05:07:00;;;;;;;53.60;30.45;;;9.70;59.80;;;;;;5033336;28;20431;-83
2021/04/04 05:09:26;;;;;;;44.92;27.10;;;9.70;58.80;;;;;;5033422;28;20405;-84
2021/04/04 05:11:53;;;;;;;38.10;23.70;;;9.90;58.80;;;;;;5033725;28;20376;-84
2021/04/04 05:14:19;;;;;;;31.40;18.80;;;10.10;58.80;;;;;;5032607;28;20053;-84
2021/04/04 05:16:47;;;;;;;25.42;16.20;;;10.30;58.90;;;;;;5032733;28;20412;-83
2021/04/04 05:19:13;;;;;;;22.15;14.32;;;10.30;59.20;;;;;;5032369;28;20456;-84
2021/04/04 05:21:41;;;;;;;21.05;14.10;;;10.50;59.10;;;;;;5034084;28;20034;-85
2021/04/04 05:24:09;;;;;;;22.17;14.00;;;10.60;58.80;;;;;;5019579;28;20033;-84
2021/04/04 05:26:38;;;;;;;19.55;12.57;;;10.70;59.00;;;;;;5033189;28;20033;-84
2021/04/04 05:29:06;;;;;;;27.75;14.60;;;10.90;58.40;;;;;;5031574;28;20025;-85
2021/04/04 05:31:32;;;;;;;22.98;13.73;;;11.00;58.10;;;;;;5033138;28;20486;-84
2021/04/04 05:34:00;;;;;;;26.25;14.20;;;11.30;58.00;;;;;;5033219;28;20017;-85
2021/04/04 05:36:26;;;;;;;25.15;14.38;;;11.50;58.20;;;;;;5033747;28;20076;-85
2021/04/04 05:38:58;;;;;;;77.38;32.03;;;11.70;57.80;;;;;;5046567;28;20029;-85
2021/04/04 05:41:32;;;;;;;158.95;60.05;;;12.00;57.10;;;;;;5032371;28;20113;-84
2021/04/04 05:44:01;;;;;;;140.23;56.80;;;12.00;56.20;;;;;;5051457;28;20029;-84
2021/04/04 05:46:36;;;;;;;129.82;49.55;;;12.10;56.00;;;;;;5034273;28;20379;-84
2021/04/04 05:49:15;;;;;;;63.22;26.30;;;12.10;55.50;;;;;;5031718;28;20080;-84
2021/04/04 05:52:13;;;;;;;26.58;11.90;;;12.30;55.50;;;;;;5032021;28;20030;-85
2021/04/04 05:54:46;;;;;;;107.40;40.85;;;12.30;54.70;;;;;;5031480;28;20117;-84
2021/04/04 05:57:36;;;;;;;63.60;24.25;;;12.30;54.60;;;;;;5032587;28;20072;-85
2021/04/04 06:00:06;;;;;;;24.40;10.48;;;12.10;54.50;;;;;;5028870;28;20049;-86
2021/04/04 06:03:09;;;;;;;19.17;7.78;;;12.00;54.90;;;;;;5031670;28;20021;-84
2021/04/04 06:05:56;;;;;;;18.50;8.68;;;12.10;55.50;;;;;;5033330;28;20033;-81
2021/04/04 06:08:59;;;;;;;29.73;12.57;;;12.20;55.60;;;;;;5019691;28;20026;-86
2021/04/04 06:11:46;;;;;;;63.00;23.92;;;12.20;55.50;;;;;;5033426;28;20100;-85
2021/04/04 06:14:18;;;;;;;31.52;13.00;;;12.20;55.30;;;;;;5033070;28;20420;-85
2021/04/04 06:16:54;;;;;;;51.35;19.98;;;12.30;55.60;;;;;;5032351;28;20079;-85
2021/04/04 06:19:45;;;;;;;51.60;20.75;;;12.40;55.60;;;;;;5031599;28;20077;-85
2021/04/04 06:22:32;;;;;;;49.25;18.33;;;12.60;55.60;;;;;;5031626;28;20424;-84
2021/04/04 06:25:19;;;;;;;38.65;16.48;;;12.90;55.70;;;;;;5033094;28;20104;-86
2021/04/04 06:27:51;;;;;;;44.05;17.77;;;13.20;55.70;;;;;;5031775;28;20112;-86
2021/04/04 06:30:46;;;;;;;80.28;32.20;;;13.40;55.40;;;;;;5032877;28;20080;-86
2021/04/04 06:33:40;;;;;;;87.70;34.47;;;13.70;54.70;;;;;;5032989;28;20044;-86
2021/04/04 06:36:14;;;;;;;89.63;37.55;;;13.90;54.10;;;;;;5034584;28;20025;-83
2021/04/04 06:39:11;;;;;;;62.55;26.65;;;14.10;53.60;;;;;;5032351;28;20440;-81
2021/04/04 06:41:46;;;;;;;82.85;31.20;;;14.40;53.10;;;;;;5032945;28;20399;-86
2021/04/04 06:44:27;;;;;;;113.22;42.25;;;14.60;52.00;;;;;;5049293;28;20029;-84
2021/04/04 06:47:16;;;;;;;97.68;41.70;;;14.90;51.60;;;;;;5037000;28;20029;-84
2021/04/04 06:50:03;;;;;;;136.65;52.55;;;15.10;51.90;;;;;;5034677;28;20036;-83
2021/04/04 06:52:55;;;;;;;152.45;59.47;;;15.40;51.90;;;;;;5034304;28;20514;-84
2021/04/04 06:55:37;;;;;;;106.07;45.15;;;15.90;51.00;;;;;;5034678;28;20026;-85
2021/04/04 06:58:34;;;;;;;31.27;14.18;;;16.40;50.40;;;;;;5034291;28;20407;-85
2021/04/04 07:01:27;;;;;;;25.17;12.50;;;16.90;49.40;;;;;;5035982;28;20064;-84
2021/04/04 07:04:04;;;;;;;18.50;10.35;;;17.30;48.60;;;;;;5036895;28;20029;-84
2021/04/04 07:06:29;;;;;;;11.90;5.88;;;17.70;47.30;;;;;;5035645;28;20029;-84
2021/04/04 07:09:10;;;;;;;10.77;5.53;;;18.10;46.50;;;;;;5033958;28;20018;-83
2021/04/04 07:11:36;;;;;;;9.20;5.68;;;18.50;45.50;;;;;;5035369;28;20383;-85
2021/04/04 07:14:29;;;;;;;11.32;6.13;;;18.80;44.50;;;;;;5036236;28;20030;-85
2021/04/04 07:17:25;;;;;;;9.27;5.90;;;19.30;43.30;;;;;;5038226;28;20487;-83
2021/04/04 07:19:51;;;;;;;10.48;6.30;;;19.70;42.70;;;;;;5037642;28;20052;-84
2021/04/04 07:22:35;;;;;;;10.77;6.53;;;20.00;42.20;;;;;;5034015;28;20463;-84
2021/04/04 07:25:29;;;;;;;12.68;7.43;;;20.30;41.10;;;;;;5035237;28;20047;-84
2021/04/04 07:28:04;;;;;;;10.93;7.65;;;20.40;40.90;;;;;;5034771;28;20032;-84
2021/04/04 07:31:00;;;;;;;11.80;8.10;;;20.80;40.00;;;;;;5034091;28;20484;-85
2021/04/04 07:33:37;;;;;;;11.00;7.05;;;21.30;39.40;;;;;;5030433;28;20460;-83
2021/04/04 07:36:21;;;;;;;11.63;6.68;;;21.80;37.50;;;;;;5033842;28;20041;-83
2021/04/04 07:38:49;;;;;;;12.52;7.10;;;22.20;37.10;;;;;;5034993;28;20057;-82
2021/04/04 07:41:44;;;;;;;10.57;5.97;;;22.40;36.00;;;;;;5035389;28;20028;-83
2021/04/04 07:44:31;;;;;;;11.52;5.80;;;22.60;35.50;;;;;;5013280;28;20365;-85
2021/04/04 07:47:12;;;;;;;8.57;5.60;;;22.90;33.90;;;;;;5034313;28;20036;-83
2021/04/04 07:49:44;;;;;;;6.60;4.03;;;23.10;33.00;;;;;;5043645;28;20018;-83
2021/04/04 07:52:23;;;;;;;7.20;4.50;;;23.20;32.50;;;;;;5035277;28;20032;-82
2021/04/04 07:55:09;;;;;;;6.40;4.50;;;23.10;32.30;;;;;;5033547;28;20022;-82
2021/04/04 07:57:56;;;;;;;8.18;4.70;;;23.00;31.60;;;;;;5033267;28;20119;-82
2021/04/04 08:00:23;;;;;;;9.90;5.00;;;23.30;31.70;;;;;;5026563;28;20395;-84
2021/04/04 08:03:10;;;;;;;11.70;5.40;;;23.50;30.80;;;;;;5034692;28;20141;-82
2021/04/04 08:05:43;;;;;;;7.28;5.28;;;23.20;30.50;;;;;;5037588;28;20021;-83
2021/04/04 08:08:16;;;;;;;11.57;5.35;;;22.90;30.30;;;;;;5035287;28;20029;-83
2021/04/04 08:11:07;;;;;;;9.75;5.60;;;22.60;30.60;;;;;;5035681;28;20147;-83
2021/04/04 08:13:57;;;;;;;8.32;5.90;;;22.30;31.00;;;;;;5035544;28;20098;-83
2021/04/04 08:16:43;;;;;;;10.73;5.97;;;22.20;31.20;;;;;;5035971;28;20036;-83
2021/04/04 08:19:10;;;;;;;12.93;7.32;;;22.00;31.10;;;;;;5023679;28;20037;-83
2021/04/04 08:21:39;;;;;;;10.35;6.15;;;21.70;31.10;;;;;;5034220;28;20055;-84
2021/04/04 08:24:36;;;;;;;10.38;6.07;;;21.60;31.10;;;;;;5033337;28;20029;-84
2021/04/04 08:27:27;;;;;;;8.68;6.03;;;21.50;30.80;;;;;;5032944;28;20040;-84
2021/04/04 08:29:59;;;;;;;8.32;5.55;;;21.20;31.10;;;;;;5034594;28;20025;-83
2021/04/04 08:32:43;;;;;;;11.85;5.93;;;21.20;31.40;;;;;;5034013;28;20104;-83
2021/04/04 08:35:13;;;;;;;10.80;6.35;;;21.40;31.00;;;;;;5033285;28;20025;-84
2021/04/04 08:37:44;;;;;;;9.32;5.40;;;21.30;31.10;;;;;;5037222;28;20052;-86
2021/04/04 08:40:14;;;;;;;7.75;5.10;;;21.50;31.20;;;;;;5034648;28;20022;-82
2021/04/04 08:42:42;;;;;;;8.77;4.82;;;21.60;30.60;;;;;;5032382;28;20025;-83
2021/04/04 08:45:19;;;;;;;9.88;5.57;;;21.50;30.20;;;;;;5032695;28;20025;-83
2021/04/04 08:47:48;;;;;;;10.68;7.28;;;21.40;30.30;;;;;;5032766;28;20434;-86
2021/04/04 08:50:17;;;;;;;10.10;7.40;;;21.40;30.10;;;;;;5034856;28;20032;-85
2021/04/04 08:53:07;;;;;;;11.27;7.50;;;21.50;30.90;;;;;;5042767;28;20025;-84
2021/04/04 08:55:35;;;;;;;11.38;7.45;;;21.60;30.30;;;;;;5033500;28;20459;-85
2021/04/04 08:58:02;;;;;;;11.45;7.18;;;22.00;30.60;;;;;;5033952;28;20082;-85
2021/04/04 09:00:29;;;;;;;11.85;6.57;;;22.30;30.40;;;;;;5033379;28;20033;-83
2021/04/04 09:03:03;;;;;;;11.73;7.85;;;22.70;29.80;;;;;;5032704;28;20464;-83
2021/04/04 09:05:31;;;;;;;11.55;6.53;;;23.10;29.30;;;;;;5036408;28;20041;-84
2021/04/04 09:08:02;;;;;;;10.13;6.63;;;23.50;29.30;;;;;;5034927;28;20464;-84
2021/04/04 09:10:38;;;;;;;10.52;6.30;;;23.50;28.50;;;;;;5032956;28;20037;-85
2021/04/04 09:13:12;;;;;;;9.73;6.18;;;23.00;28.10;;;;;;5033807;28;20039;-85
2021/04/04 09:15:54;;;;;;;9.82;6.28;;;22.50;28.30;;;;;;5033554;28;20376;-84
2021/04/04 09:18:21;;;;;;;9.38;6.43;;;22.10;28.40;;;;;;5033089;28;20099;-85
2021/04/04 09:20:48;;;;;;;10.60;5.97;;;21.70;28.50;;;;;;5034007;28;20026;-85
2021/04/04 09:23:21;;;;;;;9.93;6.30;;;21.60;28.50;;;;;;5032278;28;20029;-85
2021/04/04 09:25:57;;;;;;;8.50;6.10;;;21.70;28.60;;;;;;5031795;28;20459;-82
2021/04/04 09:28:29;;;;;;;11.80;6.28;;;22.10;28.80;;;;;;5032001;28;20033;-83
2021/04/04 09:30:58;;;;;;;10.43;6.50;;;22.60;28.80;;;;;;5031674;28;20033;-83
2021/04/04 09:33:30;;;;;;;8.57;5.85;;;23.00;28.20;;;;;;5032165;28;20075;-85
2021/04/04 09:36:01;;;;;;;11.43;6.22;;;23.30;27.70;;;;;;5033889;28;20072;-84
2021/04/04 09:38:34;;;;;;;9.05;5.68;;;23.20;27.40;;;;;;5034573;28;20030;-82
2021/04/04 09:41:03;;;;;;;11.35;6.10;;;23.10;27.60;;;;;;5033905;28;20380;-82
2021/04/04 09:43:28;;;;;;;13.45;6.65;;;23.30;28.40;;;;;;5033877;28;20026;-82
2021/04/04 09:46:03;;;;;;;7.45;5.10;;;23.80;28.10;;;;;;5031858;28;20035;-83
2021/04/04 09:48:29;;;;;;;9.60;5.65;;;24.20;27.40;;;;;;5031967;28;20065;-84
2021/04/04 09:51:05;;;;;;;12.10;5.90;;;24.60;27.40;;;;;;5031410;28;20053;-83
2021/04/04 09:53:46;;;;;;;11.55;6.43;;;24.60;26.80;;;;;;5032930;28;20021;-83
2021/04/04 09:56:20;;;;;;;10.63;6.35;;;24.20;26.60;;;;;;5035712;28;20034;-83
2021/04/04 09:58:49;;;;;;;8.52;5.45;;;24.00;26.60;;;;;;5035008;28;20049;-85
2021/04/04 10:01:20;;;;;;;8.88;5.20;;;24.00;26.90;;;;;;5032629;28;20098;-83
2021/04/04 10:04:00;;;;;;;6.80;4.65;;;24.20;26.90;;;;;;5032677;28;20057;-84
2021/04/04 10:06:27;;;;;;;6.40;4.15;;;24.50;26.50;;;;;;5032264;28;20451;-83
2021/04/04 10:08:54;;;;;;;8.80;4.95;;;24.50;26.30;;;;;;5033336;28;20028;-84
2021/04/04 10:11:21;;;;;;;10.10;5.80;;;24.10;25.90;;;;;;5032366;28;20029;-84
2021/04/04 10:13:47;;;;;;;5.90;3.28;;;23.30;26.00;;;;;;5030882;28;20117;-84
2021/04/04 10:16:23;;;;;;;7.07;3.67;;;22.50;26.10;;;;;;5028928;28;20136;-84
2021/04/04 10:19:11;;;;;;;8.77;3.53;;;21.70;26.40;;;;;;5033571;28;20100;-84
2021/04/04 10:21:54;;;;;;;8.93;3.92;;;20.90;26.90;;;;;;5029545;28;20060;-84
2021/04/04 10:24:23;;;;;;;5.85;3.47;;;20.10;27.10;;;;;;5031223;28;20379;-73
2021/04/04 10:27:15;;;;;;;8.50;4.45;;;19.50;27.60;;;;;;5025399;28;20026;-73
2021/04/04 10:29:41;;;;;;;11.95;4.05;;;18.90;28.40;;;;;;5033279;28;20044;-75
2021/04/04 10:32:07;;;;;;;8.18;3.92;;;18.40;28.60;;;;;;5035148;28;20087;-74
2021/04/04 10:34:46;;;;;;;12.10;4.38;;;18.00;29.20;;;;;;5025017;28;20033;-74
2021/04/04 10:37:25;;;;;;;10.57;6.00;;;17.60;29.30;;;;;;5032194;28;20030;-76
2021/04/04 10:39:58;;;;;;;10.23;6.25;;;17.30;29.60;;;;;;5035526;28;20017;-75
2021/04/04 10:42:25;;;;;;;9.55;5.47;;;16.90;30.00;;;;;;5034083;28;20112;-76
2021/04/04 10:45:16;;;;;;;10.93;6.10;;;16.50;30.60;;;;;;5025255;28;20045;-74
2021/04/04 10:47:44;;;;;;;14.20;7.80;;;16.10;31.30;;;;;;5034448;28;20069;-73
2021/04/04 10:50:15;;;;;;;13.13;8.25;;;15.80;31.90;;;;;;5028509;28;20476;-74
2021/04/04 10:52:43;;;;;;;10.75;6.88;;;15.50;32.60;;;;;;5032940;28;20460;-74
2021/04/04 10:55:11;;;;;;;11.35;6.72;;;15.20;34.20;;;;;;5025323;28;20047;-73
2021/04/04 10:57:38;;;;;;;9.63;5.95;;;15.00;35.50;;;;;;5032510;28;20058;-74
2021/04/04 11:00:07;;;;;;;11.55;6.88;;;14.80;37.00;;;;;;5030866;28;20061;-73
2021/04/04 11:02:35;;;;;;;12.50;6.80;;;14.60;38.10;;;;;;5045270;28;20449;-74
2021/04/04 11:05:01;;;;;;;20.45;10.93;;;14.40;38.90;;;;;;5024658;28;20013;-74
2021/04/04 11:07:28;;;;;;;9.70;6.03;;;14.20;39.70;;;;;;5031013;28;20040;-74
2021/04/04 11:09:54;;;;;;;18.85;7.38;;;14.00;40.30;;;;;;5033139;28;20040;-74
2021/04/04 11:12:20;;;;;;;13.35;7.47;;;13.70;40.80;;;;;;5035288;28;20026;-74
2021/04/04 11:14:50;;;;;;;10.82;6.00;;;13.50;41.30;;;;;;5034043;28;20100;-74
2021/04/04 11:17:20;;;;;;;8.70;5.70;;;13.50;42.00;;;;;;5035066;28;20040;-74
2021/04/04 11:19:49;;;;;;;8.18;5.50;;;13.40;42.30;;;;;;5034120;28;20025;-74
2021/04/04 11:22:18;;;;;;;8.73;5.35;;;13.30;42.60;;;;;;5034933;28;20078;-72
2021/04/04 11:25:03;;;;;;;8.38;5.53;;;13.30;42.80;;;;;;5035197;28;20056;-73
2021/04/04 11:27:46;;;;;;;8.77;5.82;;;13.20;43.10;;;;;;5033880;28;20112;-74
2021/04/04 11:30:35;;;;;;;11.10;5.57;;;13.00;43.30;;;;;;5033670;28;20460;-74
2021/04/04 11:33:18;;;;;;;23.33;9.80;;;12.90;43.60;;;;;;5033455;28;20080;-74
2021/04/04 11:36:12;;;;;;;15.57;9.55;;;12.80;44.20;;;;;;5033228;28;20029;-73
2021/04/04 11:38:50;;;;;;;20.00;9.13;;;12.80;43.80;;;;;;5034901;28;20399;-73
2021/04/04 11:41:16;;;;;;;9.77;6.07;;;12.80;43.80;;;;;;5034779;28;20167;-77
2021/04/04 11:43:43;;;;;;;10.88;6.38;;;12.90;42.90;;;;;;5033691;28;20052;-75
2021/04/04 11:46:43;;;;;;;10.80;6.28;;;13.10;42.40;;;;;;5034391;28;20383;-76
2021/04/04 11:49:27;;;;;;;10.50;5.60;;;13.30;41.70;;;;;;5034260;28;20435;-73
2021/04/04 11:51:56;;;;;;;10.05;5.68;;;13.50;41.40;;;;;;5033039;28;20068;-73
2021/04/04 11:54:41;;;;;;;9.90;6.22;;;13.70;41.60;;;;;;5032708;28;20029;-76
2021/04/04 11:57:07;;;;;;;12.73;6.07;;;13.80;41.80;;;;;;5034246;28;20124;-73
2021/04/04 11:59:33;;;;;;;10.10;6.43;;;14.00;41.80;;;;;;5034456;28;20077;-74
2021/04/04 12:01:59;;;;;;;13.63;6.40;;;14.10;41.80;;;;;;5032890;28;20059;-74
2021/04/04 12:04:43;;;;;;;12.40;6.82;;;14.20;42.00;;;;;;5030207;28;20038;-75
2021/04/04 12:07:10;;;;;;;8.93;5.13;;;14.30;42.20;;;;;;5015056;28;20476;-75
2021/04/04 12:09:38;;;;;;;11.65;5.90;;;14.40;42.20;;;;;;5030499;28;20033;-74
2021/04/04 12:12:05;;;;;;;11.02;5.30;;;14.40;42.10;;;;;;5048591;28;20127;-78
2021/04/04 12:14:31;;;;;;;11.88;5.93;;;14.40;41.60;;;;;;5032922;28;20482;-78
2021/04/04 12:16:57;;;;;;;9.88;6.10;;;14.30;41.50;;;;;;5030613;28;20034;-79
2021/04/04 12:19:24;;;;;;;7.88;5.93;;;14.20;41.40;;;;;;5015450;28;20032;-79
2021/04/04 12:21:52;;;;;;;10.10;5.95;;;14.20;41.60;;;;;;5021116;28;20034;-79
2021/04/04 12:24:18;;;;;;;10.63;5.40;;;14.20;41.30;;;;;;5015259;28;20033;-79
2021/04/04 12:26:43;;;;;;;14.68;7.05;;;14.20;41.50;;;;;;5033848;28;20038;-79
2021/04/04 12:29:09;;;;;;;10.02;6.30;;;14.20;41.50;;;;;;5023283;28;20045;-80
2021/04/04 12:31:40;;;;;;;12.45;7.53;;;14.30;41.30;;;;;;5037209;28;20419;-79
2021/04/04 12:34:06;;;;;;;13.30;7.13;;;14.40;41.30;;;;;;5026725;28;20022;-79
2021/04/04 12:36:41;;;;;;;10.23;6.35;;;14.50;41.50;;;;;;5026823;28;20040;-79
2021/04/04 12:39:08;;;;;;;10.73;6.60;;;14.70;41.50;;;;;;5027091;28;20029;-79
2021/04/04 12:41:33;;;;;;;11.48;5.72;;;14.80;41.00;;;;;;5021175;28;20029;-79
2021/04/04 12:43:59;;;;;;;13.13;6.53;;;14.80;40.80;;;;;;5030909;28;20036;-82
2021/04/04 12:46:31;;;;;;;12.68;7.22;;;14.80;40.50;;;;;;5014895;28;20053;-79
2021/04/04 12:48:57;;;;;;;11.93;6.35;;;14.60;40.60;;;;;;5027839;28;20021;-79
2021/04/04 12:51:23;;;;;;;8.05;5.47;;;14.60;40.70;;;;;;5030615;28;20422;-76
2021/04/04 12:53:50;;;;;;;8.02;5.07;;;14.60;40.70;;;;;;5013714;28;20045;-81
2021/04/04 12:56:37;;;;;;;10.10;5.85;;;14.60;41.00;;;;;;5028146;28;20022;-79
2021/04/04 12:59:04;;;;;;;8.60;5.32;;;14.60;41.10;;;;;;5039474;28;20337;-75
2021/04/04 13:01:30;;;;;;;10.52;4.68;;;14.60;41.10;;;;;;5014914;28;20030;-75
2021/04/04 13:03:56;;;;;;;9.32;4.95;;;14.70;41.20;;;;;;5013258;28;20062;-76